Lammy — PBRE — position and weather

sailwx.info

Track history (hours):
 
Tides and Currents Weather Stations Pressure Air Temp Water Temp Dewpoint Dewpoint Depression Visibility Wind Speed Wind Dir Waves Ship Positions

Lammy

Last reported at 2016-Feb-08 23:17 UTC. Time now 2016-Feb-09 01:33 UTC.
Position N 54°03' E 009°18'.

Length 95 m; draft 4.8 m.

Type: Cargo ship. MMSI: 245391000.

Date/timePositionNaut miles runAvg speedWind from/ knotsBaromVisibWave heightAir tempDewpointWater temp
2016-Feb-08 23:17N 54°03' E 009°18'6 8.4
2016-Feb-08 22:32N 53°57' E 009°14'5 4.8
2016-Feb-08 21:33N 53°54' E 009°09'2 1.6
2016-Feb-08 20:33N 53°53' E 009°06'5 5.5
2016-Feb-08 19:33N 53°51' E 008°58'8 8.4
2016-Feb-08 18:33N 53°52' E 008°44'8 8.1
2016-Feb-08 17:33N 53°58' E 008°34'1111.5
2016-Feb-08 16:33N 53°60' E 008°14'1211.8
2016-Feb-08 15:33N 53°57' E 007°55'1211.9
2016-Feb-08 14:33N 53°55' E 007°35'1212.0
2016-Feb-08 13:33N 53°52' E 007°15'1212.2
2016-Feb-08 12:33N 53°49' E 006°55'1312.6
2016-Feb-08 11:33N 53°46' E 006°35'1312.8
2016-Feb-08 10:33N 53°43' E 006°14'1313.0
2016-Feb-08 09:33N 53°38' E 005°53'1313.4
2016-Feb-08 08:33N 53°34' E 005°32'1413.6
2016-Feb-08 07:32N 53°29' E 005°09'15912.8
2016-Feb-07 19:05N 51°37' E 002°04'611.5
2016-Feb-07 18:33N 51°33' E 001°57'1212.1
2016-Feb-07 17:33N 51°24' E 001°45'1313.0
2016-Feb-07 16:34N 51°12' E 001°36'1312.6
2016-Feb-07 15:33N 51°04' E 001°21'4912.4
2016-Feb-07 11:34N 50°43' E 000°10'1212.1
2016-Feb-07 10:34N 50°46' W 000°09'4 0.3
2016-Feb-06 19:15N 50°50' W 000°13'0 0.0
2016-Feb-06 06:15N 50°50' W 000°13'0 0.0
2016-Feb-05 22:33N 50°50' W 000°13'0 0.0
2016-Feb-05 19:21N 50°50' W 000°13'0 0.0
2016-Feb-05 18:21N 50°50' W 000°13'0 0.0
2016-Feb-05 17:18N 50°50' W 000°13'0 0.0
2016-Feb-05 16:30N 50°50' W 000°13'0 0.0
2016-Feb-05 05:30N 50°50' W 000°13'0 0.0
2016-Feb-05 03:15N 50°50' W 000°13'1 0.1
2016-Feb-04 18:33N 50°50' W 000°14'17 5.8
2016-Feb-04 15:33N 50°42' E 000°11'8 7.5
2016-Feb-04 14:33N 50°41' E 000°23'8 7.6
2016-Feb-04 13:33N 50°42' E 000°35'8 8.3
2016-Feb-04 12:33N 50°47' E 000°45'19 9.4
2016-Feb-04 10:33N 50°58' E 001°09'9 9.2
2016-Feb-04 09:33N 51°04' E 001°21'9 9.2
2016-Feb-04 08:33N 51°10' E 001°32'1010.3
2016-Feb-04 07:33N 51°19' E 001°40'1111.5
2016-Feb-04 06:33N 51°30' E 001°45'1312.6
2016-Feb-04 05:33N 51°42' E 001°45'1313.1
2016-Feb-04 04:33N 51°55' E 001°45'1313.3
2016-Feb-04 03:33N 52°09' E 001°47'1313.3
2016-Feb-04 02:33N 52°22' E 001°50'1312.8
2016-Feb-04 01:33N 52°34' E 001°52'1211.5
2016-Feb-04 00:33N 52°45' E 001°46'1211.9
2016-Feb-03 23:33N 52°54' E 001°32'1111.2
2016-Feb-03 22:33N 52°60' E 001°16'1211.6
2016-Feb-03 21:32N 53°05' E 000°59'1111.6
2016-Feb-03 20:33N 53°13' E 000°45'1412.0
2016-Feb-03 19:26N 53°23' E 000°30'1012.0
2016-Feb-03 18:33N 53°31' E 000°18'1110.5
2016-Feb-03 17:33N 53°35' E 000°01'8 8.0
2016-Feb-03 16:33N 53°38' W 000°11'0 0.3
2016-Feb-03 15:32N 53°38' W 000°11'0 0.0
2016-Feb-03 14:31N 53°38' W 000°11'0 0.0
2016-Feb-03 13:31N 53°38' W 000°11'0 0.0
2016-Feb-03 12:31N 53°38' W 000°11'0 0.0
2016-Feb-03 11:31N 53°38' W 000°11'0 0.0
2016-Feb-03 10:31N 53°38' W 000°11'0 0.0
2016-Feb-03 09:31N 53°38' W 000°11'0 0.0
2016-Feb-03 08:31N 53°38' W 000°11'0 0.0
2016-Feb-03 07:31N 53°38' W 000°11'0 0.0
2016-Feb-03 06:29N 53°38' W 000°11'0 0.0
2016-Feb-03 05:31N 53°38' W 000°11'0 0.0
2016-Feb-03 04:31N 53°38' W 000°11'0 0.0
2016-Feb-03 03:32N 53°38' W 000°11'0 0.0
2016-Feb-03 02:31N 53°38' W 000°11'0 0.0
2016-Feb-03 01:31N 53°38' W 000°11'0 0.0
2016-Feb-03 00:31N 53°38' W 000°11'0 0.0
2016-Feb-02 23:31N 53°38' W 000°11'0 0.0
2016-Feb-02 22:28N 53°38' W 000°11'0 0.0
2016-Feb-02 21:31N 53°38' W 000°11'0 0.0
2016-Feb-02 20:31N 53°38' W 000°11'0 0.0
2016-Feb-02 19:31N 53°38' W 000°11'0 0.0
2016-Feb-02 18:28N 53°38' W 000°11'0 0.0
2016-Feb-02 17:31N 53°38' W 000°11'0 0.0
2016-Feb-02 16:31N 53°38' W 000°11'0 0.0
2016-Feb-02 15:32N 53°38' W 000°11'0 0.0
2016-Feb-02 14:32N 53°38' W 000°11'0 0.0
2016-Feb-02 13:31N 53°38' W 000°11'0 0.0
2016-Feb-02 12:31N 53°38' W 000°11'0 0.0
2016-Feb-02 11:32N 53°38' W 000°11'0 0.0
2016-Feb-02 10:31N 53°38' W 000°11'0 0.0
2016-Feb-02 09:31N 53°38' W 000°11'0 0.0
2016-Feb-02 08:31N 53°38' W 000°11'0 0.0
2016-Feb-02 07:31N 53°38' W 000°11'0 0.0
2016-Feb-02 06:31N 53°38' W 000°11'0 0.0
2016-Feb-02 05:31N 53°38' W 000°11'0 0.0
2016-Feb-02 04:31N 53°38' W 000°11'0 0.0
2016-Feb-02 03:31N 53°38' W 000°11'0 0.0
2016-Feb-02 02:31N 53°38' W 000°11'0 0.0
2016-Feb-02 01:31N 53°38' W 000°11'0 0.0
2016-Feb-02 00:31N 53°38' W 000°11'0 0.0
2016-Feb-01 23:31N 53°38' W 000°11'0 0.0
2016-Feb-01 22:31N 53°38' W 000°11'0 0.0
2016-Feb-01 21:31N 53°38' W 000°11'0 0.0
2016-Feb-01 20:28N 53°38' W 000°11'0 0.0
2016-Feb-01 19:33N 53°38' W 000°11'0 0.0
2016-Feb-01 18:33N 53°38' W 000°11'0 0.3
2016-Feb-01 17:34N 53°38' W 000°11'0 0.4
2016-Feb-01 16:33N 53°38' W 000°11'2 1.6
2016-Feb-01 15:33N 53°39' W 000°12'6 5.9
2016-Feb-01 14:34N 53°44' W 000°16'0 0.4
2016-Feb-01 13:32N 53°45' W 000°15'0 0.0
2016-Feb-01 12:32N 53°45' W 000°15'0 0.0
2016-Feb-01 11:32N 53°45' W 000°15'0 0.0
2016-Feb-01 10:32N 53°45' W 000°15'0 0.0
2016-Feb-01 09:32N 53°45' W 000°15'0 0.0
2016-Feb-01 08:32N 53°45' W 000°15'0 0.0
2016-Feb-01 07:32N 53°45' W 000°15'0 0.0
2016-Feb-01 06:32N 53°45' W 000°15'0 0.0
2016-Feb-01 05:32N 53°45' W 000°15'0 0.0
2016-Feb-01 04:32N 53°45' W 000°15'0 0.0
2016-Feb-01 03:32N 53°45' W 000°15'0 0.0
2016-Feb-01 02:32N 53°45' W 000°15'0 0.0
2016-Feb-01 01:32N 53°45' W 000°15'0 0.0
2016-Feb-01 00:29N 53°45' W 000°15'0 0.0
2016-Jan-31 23:32N 53°45' W 000°15'0 0.0
2016-Jan-31 22:32N 53°45' W 000°15'0 0.0
2016-Jan-31 21:32N 53°45' W 000°15'0 0.1
2016-Jan-31 20:33N 53°45' W 000°16'1 0.9
2016-Jan-31 19:33N 53°44' W 000°17'9 8.7
2016-Jan-31 18:33N 53°38' W 000°08'1110.7
2016-Jan-31 17:33N 53°33' E 000°09'1010.0
2016-Jan-31 16:33N 53°33' E 000°26'159 5.8
2016-Jan-30 13:16N 53°32' E 004°54'7 9.8
2016-Jan-30 12:33N 53°34' E 005°05'10 9.5
2016-Jan-30 11:33N 53°37' E 005°20'10 9.7
2016-Jan-30 10:33N 53°40' E 005°36'10 9.7
2016-Jan-30 09:33N 53°43' E 005°51'8 8.5
2016-Jan-30 08:33N 53°46' E 006°05'9 8.5
2016-Jan-30 07:33N 53°48' E 006°19'8 7.9
2016-Jan-30 06:33N 53°50' E 006°32'7 7.3
2016-Jan-30 05:33N 53°52' E 006°44'8 8.2
2016-Jan-30 04:33N 53°54' E 006°57'8 8.0
2016-Jan-30 03:31N 53°56' E 007°11'8 7.8
2016-Jan-30 02:33N 53°58' E 007°23'8 7.8
2016-Jan-30 01:33N 54°00' E 007°36'7 7.4
2016-Jan-30 00:33N 54°01' E 007°48'7 7.2
2016-Jan-29 23:33N 54°01' E 008°01'  
Track history (hours):
 
Tides and Currents Weather Stations Pressure Air Temp Water Temp Dewpoint Dewpoint Depression Visibility Wind Speed Wind Dir Waves Ship Positions

Lammy

Last reported at 2016-Feb-08 23:17 UTC. Time now 2016-Feb-09 01:33 UTC.
Position N 54°03' E 009°18'.

Length 95 m; draft 4.8 m.

Type: Cargo ship. MMSI: 245391000.

Date/timePositionNaut miles runAvg speedWind from/ knotsBaromVisibWave heightAir tempDewpointWater temp
2016-Feb-08 23:17N 54°03' E 009°18'6 8.4
2016-Feb-08 22:32N 53°57' E 009°14'5 4.8
2016-Feb-08 21:33N 53°54' E 009°09'2 1.6
2016-Feb-08 20:33N 53°53' E 009°06'5 5.5
2016-Feb-08 19:33N 53°51' E 008°58'8 8.4
2016-Feb-08 18:33N 53°52' E 008°44'8 8.1
2016-Feb-08 17:33N 53°58' E 008°34'1111.5
2016-Feb-08 16:33N 53°60' E 008°14'1211.8
2016-Feb-08 15:33N 53°57' E 007°55'1211.9
2016-Feb-08 14:33N 53°55' E 007°35'1212.0
2016-Feb-08 13:33N 53°52' E 007°15'1212.2
2016-Feb-08 12:33N 53°49' E 006°55'1312.6
2016-Feb-08 11:33N 53°46' E 006°35'1312.8
2016-Feb-08 10:33N 53°43' E 006°14'1313.0
2016-Feb-08 09:33N 53°38' E 005°53'1313.4
2016-Feb-08 08:33N 53°34' E 005°32'1413.6
2016-Feb-08 07:32N 53°29' E 005°09'15912.8
2016-Feb-07 19:05N 51°37' E 002°04'611.5
2016-Feb-07 18:33N 51°33' E 001°57'1212.1
2016-Feb-07 17:33N 51°24' E 001°45'1313.0
2016-Feb-07 16:34N 51°12' E 001°36'1312.6
2016-Feb-07 15:33N 51°04' E 001°21'4912.4
2016-Feb-07 11:34N 50°43' E 000°10'1212.1
2016-Feb-07 10:34N 50°46' W 000°09'4 0.3
2016-Feb-06 19:15N 50°50' W 000°13'0 0.0
2016-Feb-06 06:15N 50°50' W 000°13'0 0.0
2016-Feb-05 22:33N 50°50' W 000°13'0 0.0
2016-Feb-05 19:21N 50°50' W 000°13'0 0.0
2016-Feb-05 18:21N 50°50' W 000°13'0 0.0
2016-Feb-05 17:18N 50°50' W 000°13'0 0.0
2016-Feb-05 16:30N 50°50' W 000°13'0 0.0
2016-Feb-05 05:30N 50°50' W 000°13'0 0.0
2016-Feb-05 03:15N 50°50' W 000°13'1 0.1
2016-Feb-04 18:33N 50°50' W 000°14'17 5.8
2016-Feb-04 15:33N 50°42' E 000°11'8 7.5
2016-Feb-04 14:33N 50°41' E 000°23'8 7.6
2016-Feb-04 13:33N 50°42' E 000°35'8 8.3
2016-Feb-04 12:33N 50°47' E 000°45'19 9.4
2016-Feb-04 10:33N 50°58' E 001°09'9 9.2
2016-Feb-04 09:33N 51°04' E 001°21'9 9.2
2016-Feb-04 08:33N 51°10' E 001°32'1010.3
2016-Feb-04 07:33N 51°19' E 001°40'1111.5
2016-Feb-04 06:33N 51°30' E 001°45'1312.6
2016-Feb-04 05:33N 51°42' E 001°45'1313.1
2016-Feb-04 04:33N 51°55' E 001°45'1313.3
2016-Feb-04 03:33N 52°09' E 001°47'1313.3
2016-Feb-04 02:33N 52°22' E 001°50'1312.8
2016-Feb-04 01:33N 52°34' E 001°52'1211.5
2016-Feb-04 00:33N 52°45' E 001°46'1211.9
2016-Feb-03 23:33N 52°54' E 001°32'1111.2
2016-Feb-03 22:33N 52°60' E 001°16'1211.6
2016-Feb-03 21:32N 53°05' E 000°59'1111.6
2016-Feb-03 20:33N 53°13' E 000°45'1412.0
2016-Feb-03 19:26N 53°23' E 000°30'1012.0
2016-Feb-03 18:33N 53°31' E 000°18'1110.5
2016-Feb-03 17:33N 53°35' E 000°01'8 8.0
2016-Feb-03 16:33N 53°38' W 000°11'0 0.3
2016-Feb-03 15:32N 53°38' W 000°11'0 0.0
2016-Feb-03 14:31N 53°38' W 000°11'0 0.0
2016-Feb-03 13:31N 53°38' W 000°11'0 0.0
2016-Feb-03 12:31N 53°38' W 000°11'0 0.0
2016-Feb-03 11:31N 53°38' W 000°11'0 0.0
2016-Feb-03 10:31N 53°38' W 000°11'0 0.0
2016-Feb-03 09:31N 53°38' W 000°11'0 0.0
2016-Feb-03 08:31N 53°38' W 000°11'0 0.0
2016-Feb-03 07:31N 53°38' W 000°11'0 0.0
2016-Feb-03 06:29N 53°38' W 000°11'0 0.0
2016-Feb-03 05:31N 53°38' W 000°11'0 0.0
2016-Feb-03 04:31N 53°38' W 000°11'0 0.0
2016-Feb-03 03:32N 53°38' W 000°11'0 0.0
2016-Feb-03 02:31N 53°38' W 000°11'0 0.0
2016-Feb-03 01:31N 53°38' W 000°11'0 0.0
2016-Feb-03 00:31N 53°38' W 000°11'0 0.0
2016-Feb-02 23:31N 53°38' W 000°11'0 0.0
2016-Feb-02 22:28N 53°38' W 000°11'0 0.0
2016-Feb-02 21:31N 53°38' W 000°11'0 0.0
2016-Feb-02 20:31N 53°38' W 000°11'0 0.0
2016-Feb-02 19:31N 53°38' W 000°11'0 0.0
2016-Feb-02 18:28N 53°38' W 000°11'0 0.0
2016-Feb-02 17:31N 53°38' W 000°11'0 0.0
2016-Feb-02 16:31N 53°38' W 000°11'0 0.0
2016-Feb-02 15:32N 53°38' W 000°11'0 0.0
2016-Feb-02 14:32N 53°38' W 000°11'0 0.0
2016-Feb-02 13:31N 53°38' W 000°11'0 0.0
2016-Feb-02 12:31N 53°38' W 000°11'0 0.0
2016-Feb-02 11:32N 53°38' W 000°11'0 0.0
2016-Feb-02 10:31N 53°38' W 000°11'0 0.0
2016-Feb-02 09:31N 53°38' W 000°11'0 0.0
2016-Feb-02 08:31N 53°38' W 000°11'0 0.0
2016-Feb-02 07:31N 53°38' W 000°11'0 0.0
2016-Feb-02 06:31N 53°38' W 000°11'0 0.0
2016-Feb-02 05:31N 53°38' W 000°11'0 0.0
2016-Feb-02 04:31N 53°38' W 000°11'0 0.0
2016-Feb-02 03:31N 53°38' W 000°11'0 0.0
2016-Feb-02 02:31N 53°38' W 000°11'0 0.0
2016-Feb-02 01:31N 53°38' W 000°11'0 0.0
2016-Feb-02 00:31N 53°38' W 000°11'0 0.0
2016-Feb-01 23:31N 53°38' W 000°11'0 0.0
2016-Feb-01 22:31N 53°38' W 000°11'0 0.0
2016-Feb-01 21:31N 53°38' W 000°11'0 0.0
2016-Feb-01 20:28N 53°38' W 000°11'0 0.0
2016-Feb-01 19:33N 53°38' W 000°11'0 0.0
2016-Feb-01 18:33N 53°38' W 000°11'0 0.3
2016-Feb-01 17:34N 53°38' W 000°11'0 0.4
2016-Feb-01 16:33N 53°38' W 000°11'2 1.6
2016-Feb-01 15:33N 53°39' W 000°12'6 5.9
2016-Feb-01 14:34N 53°44' W 000°16'0 0.4
2016-Feb-01 13:32N 53°45' W 000°15'0 0.0
2016-Feb-01 12:32N 53°45' W 000°15'0 0.0
2016-Feb-01 11:32N 53°45' W 000°15'0 0.0
2016-Feb-01 10:32N 53°45' W 000°15'0 0.0
2016-Feb-01 09:32N 53°45' W 000°15'0 0.0
2016-Feb-01 08:32N 53°45' W 000°15'0 0.0
2016-Feb-01 07:32N 53°45' W 000°15'0 0.0
2016-Feb-01 06:32N 53°45' W 000°15'0 0.0
2016-Feb-01 05:32N 53°45' W 000°15'0 0.0
2016-Feb-01 04:32N 53°45' W 000°15'0 0.0
2016-Feb-01 03:32N 53°45' W 000°15'0 0.0
2016-Feb-01 02:32N 53°45' W 000°15'0 0.0
2016-Feb-01 01:32N 53°45' W 000°15'0 0.0
2016-Feb-01 00:29N 53°45' W 000°15'0 0.0
2016-Jan-31 23:32N 53°45' W 000°15'0 0.0
2016-Jan-31 22:32N 53°45' W 000°15'0 0.0
2016-Jan-31 21:32N 53°45' W 000°15'0 0.1
2016-Jan-31 20:33N 53°45' W 000°16'1 0.9
2016-Jan-31 19:33N 53°44' W 000°17'9 8.7
2016-Jan-31 18:33N 53°38' W 000°08'1110.7
2016-Jan-31 17:33N 53°33' E 000°09'1010.0
2016-Jan-31 16:33N 53°33' E 000°26'159 5.8
2016-Jan-30 13:16N 53°32' E 004°54'7 9.8
2016-Jan-30 12:33N 53°34' E 005°05'10 9.5
2016-Jan-30 11:33N 53°37' E 005°20'10 9.7
2016-Jan-30 10:33N 53°40' E 005°36'10 9.7
2016-Jan-30 09:33N 53°43' E 005°51'8 8.5
2016-Jan-30 08:33N 53°46' E 006°05'9 8.5
2016-Jan-30 07:33N 53°48' E 006°19'8 7.9
2016-Jan-30 06:33N 53°50' E 006°32'7 7.3
2016-Jan-30 05:33N 53°52' E 006°44'8 8.2
2016-Jan-30 04:33N 53°54' E 006°57'8 8.0
2016-Jan-30 03:31N 53°56' E 007°11'8 7.8
2016-Jan-30 02:33N 53°58' E 007°23'8 7.8
2016-Jan-30 01:33N 54°00' E 007°36'7 7.4
2016-Jan-30 00:33N 54°01' E 007°48'7 7.2
2016-Jan-29 23:33N 54°01' E 008°01'  

Dump ship's entire track history